createdAt,value
2023-04-19T00:00:42.622Z,98579.83
2023-04-19T00:05:59.199Z,98570.77
2023-04-19T00:11:06.392Z,98566.98
2023-04-19T00:16:13.351Z,98562.89
2023-04-19T00:21:20.554Z,98555.83
2023-04-19T00:26:27.769Z,98549.13
2023-04-19T00:31:35.262Z,98544.63
2023-04-19T00:36:42.452Z,98547.31
2023-04-19T00:41:49.970Z,98544.95
2023-04-19T00:46:57.923Z,98537.77
2023-04-19T00:52:05.232Z,98530.28
2023-04-19T00:57:12.271Z,98522.80
2023-04-19T01:02:19.584Z,98519.66
2023-04-19T01:07:26.736Z,98511.70
2023-04-19T01:12:33.886Z,98499.25
2023-04-19T01:17:41.489Z,98493.34
2023-04-19T01:22:48.761Z,98485.85
2023-04-19T01:27:56.101Z,98479.23
2023-04-19T01:33:03.807Z,98473.55
2023-04-19T01:38:10.972Z,98472.48
2023-04-19T01:43:18.874Z,98464.42
2023-04-19T01:48:26.150Z,98458.73
2023-04-19T01:53:33.270Z,98450.39
2023-04-19T01:58:40.243Z,98448.02
2023-04-19T02:03:47.601Z,98451.27
2023-04-19T02:08:54.958Z,98455.52
2023-04-19T02:14:02.161Z,98453.33
2023-04-19T02:19:09.632Z,98448.06
2023-04-19T02:24:17.563Z,98443.17
2023-04-19T02:29:25.111Z,98444.11
2023-04-19T02:34:32.562Z,98443.02
2023-04-19T02:39:40.132Z,98438.77
2023-04-19T02:44:47.532Z,98434.13
2023-04-19T02:49:54.672Z,98429.94
2023-04-19T02:55:01.880Z,98433.40
2023-04-19T03:00:10.740Z,98421.92
2023-04-19T03:05:17.933Z,98415.45
2023-04-19T03:10:25.354Z,98410.27
2023-04-19T03:15:32.595Z,98400.89
2023-04-19T03:20:40.385Z,98393.40
2023-04-19T03:25:48.092Z,98392.70
2023-04-19T03:30:55.366Z,98388.13
2023-04-19T03:36:02.720Z,98382.05
2023-04-19T03:41:19.968Z,98385.37
2023-04-19T03:46:27.233Z,98376.14
2023-04-19T03:51:34.560Z,98367.58
2023-04-19T03:56:41.788Z,98357.66
2023-04-19T04:01:48.996Z,98341.90
2023-04-19T04:06:56.274Z,98335.91
2023-04-19T04:12:03.388Z,98328.89
2023-04-19T04:17:10.739Z,98327.80
2023-04-19T04:22:18.436Z,98326.77
2023-04-19T04:27:25.790Z,98330.40
2023-04-19T04:32:36.371Z,98335.36
2023-04-19T04:37:43.532Z,98334.02
2023-04-19T04:42:53.313Z,98337.64
2023-04-19T04:48:00.973Z,98331.73
2023-04-19T04:53:08.309Z,98332.13
2023-04-19T04:58:15.701Z,98332.28
2023-04-19T05:03:23.180Z,98326.54
2023-04-19T05:08:30.323Z,98325.35
2023-04-19T05:13:37.336Z,98324.57
2023-04-19T05:18:44.444Z,98328.58
2023-04-19T05:23:53.839Z,98326.36
2023-04-19T05:29:00.800Z,98326.58
2023-04-19T05:34:07.796Z,98334.95
2023-04-19T05:39:15.008Z,98339.84
2023-04-19T05:44:22.633Z,98340.72
2023-04-19T05:49:30.179Z,98339.70
2023-04-19T05:54:37.588Z,98337.34
2023-04-19T05:59:45.197Z,98342.29
2023-04-19T06:04:52.522Z,98349.55
2023-04-19T06:10:00.009Z,98347.60
2023-04-19T06:15:07.973Z,98347.19
2023-04-19T06:25:39.670Z,98351.54
2023-04-19T06:30:46.638Z,98354.39
2023-04-19T06:35:54.326Z,98354.86
2023-04-19T06:41:01.771Z,98355.58
2023-04-19T06:46:08.883Z,98355.05
2023-04-19T06:51:15.956Z,98354.04
2023-04-19T06:56:40.844Z,98346.15
2023-04-19T07:01:48.735Z,98349.20
2023-04-19T07:06:56.246Z,98343.48
2023-04-19T07:12:03.517Z,98350.34
2023-04-19T07:17:10.646Z,98349.89
2023-04-19T07:22:17.665Z,98352.41
2023-04-19T07:27:25.020Z,98352.50
2023-04-19T07:32:32.559Z,98357.23
2023-04-19T07:37:39.715Z,98358.02
2023-04-19T07:42:46.844Z,98357.08
2023-04-19T07:47:54.150Z,98363.31
2023-04-19T07:53:01.639Z,98365.11
2023-04-19T07:58:08.833Z,98371.11
2023-04-19T08:03:16.148Z,98365.99
2023-04-19T08:08:23.502Z,98368.83
2023-04-19T08:13:30.455Z,98371.35
2023-04-19T08:18:37.755Z,98364.44
2023-04-19T08:23:48.338Z,98365.69
2023-04-19T08:28:58.127Z,98365.05
2023-04-19T08:34:05.293Z,98358.58
2023-04-19T08:39:24.719Z,98360.31
2023-04-19T08:44:49.246Z,98363.68
2023-04-19T08:50:17.249Z,98363.36
2023-04-19T08:55:28.138Z,98363.83
2023-04-19T09:00:35.712Z,98361.73
2023-04-19T09:05:42.971Z,98357.30
2023-04-19T09:10:56.387Z,98357.72
2023-04-19T09:16:05.502Z,98359.22
2023-04-19T09:21:29.617Z,98354.50
2023-04-19T09:26:37.264Z,98350.86
2023-04-19T09:31:58.670Z,98352.16
2023-04-19T09:37:29.627Z,98358.86
2023-04-19T09:48:05.159Z,98357.77
2023-04-19T09:53:12.713Z,98363.02
2023-04-19T09:58:20.445Z,98362.21
2023-04-19T10:03:29.893Z,98362.83
2023-04-19T10:08:37.168Z,98362.03
2023-04-19T10:13:45.343Z,98365.60
2023-04-19T10:18:53.246Z,98361.67
2023-04-19T10:24:00.578Z,98358.27
2023-04-19T10:29:08.457Z,98359.15
2023-04-19T10:34:16.518Z,98355.61
2023-04-19T10:39:37.417Z,98358.30
2023-04-19T10:44:44.487Z,98360.73
2023-04-19T10:49:52.767Z,98360.27
2023-04-19T10:54:59.774Z,98358.77
2023-04-19T11:00:22.926Z,98359.96
2023-04-19T11:05:29.917Z,98365.71
2023-04-19T11:10:37.216Z,98365.82
2023-04-19T11:15:46.456Z,98372.82
2023-04-19T11:20:56.936Z,98371.11
2023-04-19T11:26:04.281Z,98374.65
2023-04-19T11:31:11.676Z,98379.23
2023-04-19T11:36:19.293Z,98383.18
2023-04-19T11:41:26.659Z,98376.02
2023-04-19T11:46:33.903Z,98372.95
2023-04-19T11:51:45.088Z,98368.38
2023-04-19T11:57:05.658Z,98369.80
2023-04-19T12:02:13.672Z,98373.52
2023-04-19T12:07:21.005Z,98377.39
2023-04-19T12:12:37.816Z,98380.41
2023-04-19T12:17:58.941Z,98376.39
2023-04-19T12:23:12.273Z,98372.37
2023-04-19T12:28:19.810Z,98372.29
2023-04-19T12:33:27.416Z,98380.05
2023-04-19T12:38:35.381Z,98382.83
2023-04-19T12:43:42.585Z,98379.83
2023-04-19T12:48:50.104Z,98385.59
2023-04-19T12:53:58.102Z,98382.91
2023-04-19T12:59:05.624Z,98385.91
2023-04-19T13:04:12.943Z,98383.10
2023-04-19T13:09:21.483Z,98381.21
2023-04-19T13:14:29.815Z,98386.81
2023-04-19T13:19:38.018Z,98384.06
2023-04-19T13:24:45.548Z,98381.00
2023-04-19T13:29:53.058Z,98381.63
2023-04-19T13:35:01.318Z,98384.32
2023-04-19T13:40:18.731Z,98384.88
2023-04-19T13:45:27.817Z,98380.54
2023-04-19T13:50:36.717Z,98380.53
2023-04-19T13:55:44.949Z,98379.13
2023-04-19T14:00:53.635Z,98385.05
2023-04-19T14:06:03.249Z,98385.94
2023-04-19T14:11:11.968Z,98384.99
2023-04-19T14:16:21.550Z,98380.83
2023-04-19T14:21:30.713Z,98382.95
2023-04-19T14:26:39.312Z,98386.18
2023-04-19T14:31:48.101Z,98384.80
2023-04-19T14:36:56.910Z,98388.75
2023-04-19T14:42:05.812Z,98386.93
2023-04-19T14:47:15.585Z,98391.11
2023-04-19T14:52:27.019Z,98388.77
2023-04-19T14:57:36.814Z,98385.84
2023-04-19T15:02:45.960Z,98380.50
2023-04-19T15:07:55.114Z,98382.88
2023-04-19T15:13:04.844Z,98392.57
2023-04-19T15:18:13.885Z,98397.55
2023-04-19T15:23:23.975Z,98393.85
2023-04-19T15:28:32.517Z,98397.48
2023-04-19T15:33:40.893Z,98395.99
2023-04-19T15:38:50.170Z,98396.86
2023-04-19T15:44:00.004Z,98403.48
2023-04-19T15:49:07.899Z,98410.84
2023-04-19T15:54:16.990Z,98409.42
2023-04-19T15:59:25.437Z,98415.16
2023-04-19T16:04:33.824Z,98419.02
2023-04-19T16:09:41.483Z,98415.02
2023-04-19T16:14:49.036Z,98422.19
2023-04-19T16:19:56.332Z,98425.27
2023-04-19T16:25:03.599Z,98427.02
2023-04-19T16:30:11.636Z,98430.73
2023-04-19T16:35:19.766Z,98433.83
2023-04-19T16:40:26.799Z,98433.27
2023-04-19T16:45:33.952Z,98437.14
2023-04-19T16:50:41.188Z,98446.20
2023-04-19T16:55:48.505Z,98447.31
2023-04-19T17:00:56.047Z,98450.00
2023-04-19T17:06:03.308Z,98446.61
2023-04-19T17:11:11.128Z,98451.29
2023-04-19T17:16:18.732Z,98461.76
2023-04-19T17:21:26.240Z,98461.84
2023-04-19T17:26:33.501Z,98469.56
2023-04-19T17:31:41.067Z,98472.23
2023-04-19T17:36:48.226Z,98469.42
2023-04-19T17:41:55.458Z,98470.30
2023-04-19T17:47:03.206Z,98472.84
2023-04-19T17:52:10.384Z,98476.23
2023-04-19T17:57:17.484Z,98484.25
2023-04-19T18:02:24.869Z,98490.48
2023-04-19T18:07:32.773Z,98499.15
2023-04-19T18:12:40.356Z,98501.91
2023-04-19T18:17:47.868Z,98511.59
2023-04-19T18:22:55.188Z,98508.61
2023-04-19T18:28:02.616Z,98511.30
2023-04-19T18:33:10.080Z,98507.85
2023-04-19T18:38:17.329Z,98506.44
2023-04-19T18:43:24.516Z,98507.23
2023-04-19T18:48:31.554Z,98502.82
2023-04-19T18:53:38.642Z,98506.67
2023-04-19T18:58:46.727Z,98506.30
2023-04-19T19:04:19.266Z,98520.00
2023-04-19T19:09:23.627Z,98524.33
2023-04-19T19:14:36.109Z,98521.27
2023-04-19T19:19:43.719Z,98512.86
2023-04-19T19:24:51.155Z,98520.65
2023-04-19T19:29:59.076Z,98525.77
2023-04-19T19:35:08.629Z,98534.29
2023-04-19T19:40:17.273Z,98534.20
2023-04-19T19:45:24.806Z,98537.35
2023-04-19T19:55:42.277Z,98545.89
2023-04-19T20:00:52.642Z,98548.50
2023-04-19T20:06:01.088Z,98545.67
2023-04-19T20:11:11.408Z,98536.52
2023-04-19T20:16:20.094Z,98534.65
2023-04-19T20:21:27.312Z,98536.54
2023-04-19T20:26:34.665Z,98537.25
2023-04-19T20:31:41.885Z,98536.63
2023-04-19T20:36:48.731Z,98530.74
2023-04-19T20:41:56.603Z,98531.45
2023-04-19T20:47:04.163Z,98534.37
2023-04-19T20:52:11.666Z,98535.01
2023-04-19T20:57:18.781Z,98536.90
2023-04-19T21:02:26.160Z,98536.66
2023-04-19T21:07:33.974Z,98539.11
2023-04-19T21:12:41.237Z,98538.89
2023-04-19T21:17:48.529Z,98531.48
2023-04-19T21:22:55.756Z,98527.25
2023-04-19T21:28:03.091Z,98529.52
2023-04-19T21:33:10.340Z,98533.94
2023-04-19T21:38:17.651Z,98534.02
2023-04-19T21:43:24.850Z,98535.44
2023-04-19T21:48:32.381Z,98534.68
2023-04-19T21:53:39.760Z,98537.11
2023-04-19T21:58:47.745Z,98535.16
2023-04-19T22:03:55.339Z,98536.58
2023-04-19T22:09:03.195Z,98541.39
2023-04-19T22:14:10.688Z,98547.84
2023-04-19T22:19:18.542Z,98548.23
2023-04-19T22:24:26.002Z,98549.44
2023-04-19T22:29:34.716Z,98549.10
2023-04-19T22:34:42.215Z,98551.16
2023-04-19T22:39:49.652Z,98553.60
2023-04-19T22:44:56.994Z,98554.63
2023-04-19T22:50:04.312Z,98549.59
2023-04-19T22:55:12.064Z,98543.55
2023-04-19T23:00:19.597Z,98540.55
2023-04-19T23:05:27.245Z,98538.11
2023-04-19T23:10:38.620Z,98538.35
2023-04-19T23:15:46.254Z,98537.19
2023-04-19T23:20:53.813Z,98538.37
2023-04-19T23:26:01.183Z,98537.60
2023-04-19T23:31:08.526Z,98540.50
2023-04-19T23:36:15.548Z,98544.13
2023-04-19T23:41:22.646Z,98538.31
2023-04-19T23:46:29.783Z,98535.16
2023-04-19T23:51:37.362Z,98532.41
2023-04-19T23:56:45.797Z,98526.73
